Time;durP1;ratioP1;P1;durP2;ratioP2;P2;SDS_P1;SDS_P2;PMS_P1;PMS_P2;Temp;Humidity;BMP_temperature;BMP_pressure;BME280_temperature;BME280_humidity;BME280_pressure;Samples;Min_cycle;Max_cycle;Signal;HPM_P1;HPM_P2
2021/09/11 00:00:38;;;;;;;;;5.75;4.25;;;;;-147.91;100.00;58652.34;4958886;28;45662;-82
2021/09/11 00:03:04;;;;;;;;;7.50;5.00;;;;;-147.91;100.00;58652.34;4970702;28;45861;-83
2021/09/11 00:05:29;;;;;;;;;5.25;5.25;;;;;-147.91;100.00;58652.34;4949174;28;46011;-82
2021/09/11 00:07:55;;;;;;;;;5.25;5.00;;;;;-147.91;100.00;58652.34;5009385;28;45736;-81
2021/09/11 00:10:21;;;;;;;;;6.00;5.00;;;;;-147.91;100.00;58652.34;4988173;28;46253;-81
2021/09/11 00:12:47;;;;;;;;;5.00;5.00;;;;;-147.91;100.00;58652.34;4993004;28;45737;-82
2021/09/11 00:15:14;;;;;;;;;5.50;4.00;;;;;-147.91;100.00;58652.34;4994819;28;45559;-82
2021/09/11 00:17:44;;;;;;;;;6.00;5.00;;;;;-147.91;100.00;58652.34;4993509;28;45885;-82
2021/09/11 00:20:10;;;;;;;;;5.25;4.75;;;;;-147.91;100.00;58652.34;4998341;28;45776;-85
2021/09/11 00:22:36;;;;;;;;;5.00;5.00;;;;;-147.91;100.00;58652.34;5001851;28;45523;-85
2021/09/11 00:25:02;;;;;;;;;5.00;4.00;;;;;-147.91;100.00;58652.34;4997238;28;45487;-84
2021/09/11 00:27:27;;;;;;;;;5.75;4.50;;;;;-147.91;100.00;58652.34;5003315;28;46643;-85
2021/09/11 00:30:39;;;;;;;;;5.75;5.00;;;;;-147.91;100.00;58652.34;4994275;28;46173;-85
2021/09/11 00:33:04;;;;;;;;;6.75;4.00;;;;;-147.91;100.00;58652.34;4923624;28;45726;-85
2021/09/11 00:35:30;;;;;;;;;5.25;5.00;;;;;-147.91;100.00;58652.34;4917966;28;45653;-85
2021/09/11 00:37:55;;;;;;;;;4.50;3.50;;;;;-147.91;100.00;58652.34;4920719;28;45674;-85
2021/09/11 00:46:24;;;;;;;;;4.50;4.00;;;;;-147.91;100.00;58652.34;5030436;23;66483;-85
2021/09/11 00:48:49;;;;;;;;;5.75;3.00;;;;;-147.91;100.00;58652.34;5016745;28;46236;-85
2021/09/11 00:51:15;;;;;;;;;5.00;3.00;;;;;-147.91;100.00;58652.34;5017954;28;45589;-85
2021/09/11 00:53:41;;;;;;;;;3.25;3.25;;;;;-147.91;100.00;58652.34;5013110;28;46147;-85
2021/09/11 00:56:07;;;;;;;;;4.75;4.75;;;;;-147.91;100.00;58652.34;5015848;28;45577;-85
2021/09/11 00:58:33;;;;;;;;;3.25;3.25;;;;;-147.91;100.00;58652.34;5013412;28;46737;-86
2021/09/11 01:00:59;;;;;;;;;3.75;3.75;;;;;-147.91;100.00;58652.34;4994004;28;45583;-85
2021/09/11 01:03:24;;;;;;;;;3.75;3.25;;;;;-147.91;100.00;58652.34;5018011;28;49486;-83
2021/09/11 01:05:50;;;;;;;;;5.50;4.50;;;;;-147.91;100.00;58652.34;5011187;28;46520;-85
2021/09/11 01:08:15;;;;;;;;;4.00;4.00;;;;;-147.91;100.00;58652.34;5011948;28;47121;-85
2021/09/11 01:10:41;;;;;;;;;5.75;4.00;;;;;-147.91;100.00;58652.34;5001899;28;45618;-85
2021/09/11 01:13:10;;;;;;;;;4.00;4.00;;;;;-147.91;100.00;58652.34;4993235;28;46132;-85
2021/09/11 01:15:38;;;;;;;;;8.75;4.00;;;;;-147.91;100.00;58652.34;5012885;28;47708;-85
2021/09/11 01:18:06;;;;;;;;;6.00;4.50;;;;;-147.91;100.00;58652.34;4989084;28;47603;-86
2021/09/11 01:20:33;;;;;;;;;3.25;3.25;;;;;-147.91;100.00;58652.34;4971908;28;45702;-84
2021/09/11 01:23:00;;;;;;;;;5.00;3.25;;;;;-147.91;100.00;58652.34;4983037;28;47910;-85
2021/09/11 01:25:26;;;;;;;;;3.75;3.00;;;;;-147.91;100.00;58652.34;5002836;28;46748;-85
2021/09/11 01:27:52;;;;;;;;;4.00;4.00;;;;;-147.91;100.00;58652.34;5015276;28;46018;-85
2021/09/11 01:30:20;;;;;;;;;3.00;3.00;;;;;-147.91;100.00;58652.34;5015329;28;45547;-84
2021/09/11 01:32:47;;;;;;;;;6.50;4.00;;;;;-147.91;100.00;58652.34;5009092;28;45435;-86
2021/09/11 01:35:13;;;;;;;;;5.00;5.00;;;;;-147.91;100.00;58652.34;5005461;28;45539;-86
2021/09/11 01:37:39;;;;;;;;;5.00;4.25;;;;;-147.91;100.00;58652.34;5007759;28;46593;-85
2021/09/11 01:40:06;;;;;;;;;5.00;4.00;;;;;-147.91;100.00;58652.34;4991224;28;45532;-85
2021/09/11 01:42:32;;;;;;;;;4.00;4.00;;;;;-147.91;100.00;58652.34;5019773;28;45759;-85
2021/09/11 01:45:00;;;;;;;;;6.00;3.00;;;;;-147.91;100.00;58652.34;5002759;28;45507;-86
2021/09/11 01:47:26;;;;;;;;;3.00;3.00;;;;;-147.91;100.00;58652.34;5009875;28;45597;-84
2021/09/11 01:49:53;;;;;;;;;6.50;4.00;;;;;-147.91;100.00;58652.34;5016273;28;45518;-85
2021/09/11 01:52:20;;;;;;;;;5.25;3.75;;;;;-147.91;100.00;58652.34;4994647;28;45597;-84
2021/09/11 01:54:46;;;;;;;;;3.75;3.75;;;;;-147.91;100.00;58652.34;5016221;28;45466;-84
2021/09/11 01:57:12;;;;;;;;;3.00;3.00;;;;;-147.91;100.00;58652.34;5013871;28;46244;-85
2021/09/11 01:59:39;;;;;;;;;4.00;4.00;;;;;-147.91;100.00;58652.34;5005909;28;46211;-83
2021/09/11 02:02:05;;;;;;;;;6.00;4.00;;;;;-147.91;100.00;58652.34;5016989;28;45579;-83
2021/09/11 02:04:31;;;;;;;;;4.25;4.25;;;;;-147.91;100.00;58652.34;5010396;28;45613;-83
2021/09/11 02:06:57;;;;;;;;;6.50;4.75;;;;;-147.91;100.00;58652.34;5009123;28;46730;-83
2021/09/11 02:09:23;;;;;;;;;3.50;3.50;;;;;-147.91;100.00;58652.34;5011964;28;45730;-83
2021/09/11 02:11:48;;;;;;;;;3.75;3.75;;;;;-147.91;100.00;58652.34;5011662;28;46261;-83
2021/09/11 02:14:14;;;;;;;;;5.00;3.00;;;;;-147.91;100.00;58652.34;5013501;28;49960;-83
2021/09/11 02:16:39;;;;;;;;;4.50;4.50;;;;;-147.91;100.00;58652.34;5005322;28;45502;-83
2021/09/11 02:19:05;;;;;;;;;6.00;4.50;;;;;-147.91;100.00;58652.34;5008039;28;45504;-81
2021/09/11 02:21:30;;;;;;;;;3.50;3.50;;;;;-147.91;100.00;58652.34;5017031;28;47895;-81
2021/09/11 02:23:56;;;;;;;;;6.00;6.00;;;;;-147.91;100.00;58652.34;5007727;28;45550;-81
2021/09/11 02:33:12;;;;;;;;;3.25;3.25;;;;;-147.91;100.00;58652.34;4968528;28;45558;-81
2021/09/11 02:35:37;;;;;;;;;3.25;3.00;;;;;-147.91;100.00;58652.34;4965053;28;50984;-81
2021/09/11 02:38:03;;;;;;;;;3.25;3.25;;;;;-147.91;100.00;58652.34;4967536;28;46319;-82
2021/09/11 02:40:28;;;;;;;;;4.00;4.00;;;;;-147.91;100.00;58652.34;4966888;28;45991;-81
2021/09/11 02:42:53;;;;;;;;;5.00;4.00;;;;;-147.91;100.00;58652.34;4965440;28;45695;-81
2021/09/11 02:45:19;;;;;;;;;4.50;4.50;;;;;-147.91;100.00;58652.34;4962698;28;45613;-81
2021/09/11 02:47:44;;;;;;;;;3.75;3.75;;;;;-147.91;100.00;58652.34;4959918;28;45857;-81
2021/09/11 02:50:10;;;;;;;;;7.00;5.00;;;;;-147.91;100.00;58652.34;4964974;28;45784;-81
2021/09/11 02:52:35;;;;;;;;;4.00;4.00;;;;;-147.91;100.00;58652.34;4963924;28;52159;-81
2021/09/11 02:55:01;;;;;;;;;6.50;5.50;;;;;-147.91;100.00;58652.34;4952165;28;45576;-81
2021/09/11 02:57:26;;;;;;;;;4.00;4.00;;;;;-147.91;100.00;58652.34;4967505;28;46254;-81
2021/09/11 02:59:52;;;;;;;;;6.00;6.00;;;;;-147.91;100.00;58652.34;4964203;28;45710;-81
2021/09/11 03:02:17;;;;;;;;;6.00;5.00;;;;;-147.91;100.00;58652.34;4967687;28;50332;-80
2021/09/11 03:04:43;;;;;;;;;5.00;5.00;;;;;-147.91;100.00;58652.34;4968163;28;46477;-81
2021/09/11 03:07:08;;;;;;;;;6.00;4.50;;;;;-147.91;100.00;58652.34;5001961;28;46681;-81
2021/09/11 03:09:34;;;;;;;;;4.75;4.75;;;;;-147.91;100.00;58652.34;5008881;28;45717;-81
2021/09/11 03:11:59;;;;;;;;;6.00;5.00;;;;;-147.91;100.00;58652.34;4999036;28;46035;-81
2021/09/11 03:14:24;;;;;;;;;5.50;5.50;;;;;-147.91;100.00;58652.34;4991839;28;45784;-82
2021/09/11 03:16:50;;;;;;;;;7.50;6.00;;;;;-147.91;100.00;58652.34;5006003;28;54952;-81
2021/09/11 03:19:15;;;;;;;;;8.50;7.00;;;;;-147.91;100.00;58652.34;5002843;28;45594;-83
2021/09/11 03:21:41;;;;;;;;;6.75;6.75;;;;;-147.91;100.00;58652.34;5021315;28;46783;-83
2021/09/11 03:24:06;;;;;;;;;7.00;7.00;;;;;-147.91;100.00;58652.34;4994150;28;45824;-83
2021/09/11 03:26:32;;;;;;;;;7.00;6.00;;;;;-147.91;100.00;58652.34;4980718;28;47120;-82
2021/09/11 03:28:57;;;;;;;;;8.00;7.50;;;;;-147.91;100.00;58652.34;5007272;28;45587;-83
2021/09/11 03:31:23;;;;;;;;;5.50;5.50;;;;;-147.91;100.00;58652.34;5007788;28;46086;-84
2021/09/11 03:33:48;;;;;;;;;4.00;4.00;;;;;-147.91;100.00;58652.34;5002888;28;45518;-83
2021/09/11 03:36:14;;;;;;;;;6.00;5.75;;;;;-147.91;100.00;58652.34;5002106;28;46643;-83
2021/09/11 03:38:39;;;;;;;;;5.75;5.25;;;;;-147.91;100.00;58652.34;5003088;28;47010;-83
2021/09/11 03:41:04;;;;;;;;;5.00;5.00;;;;;-147.91;100.00;58652.34;5010940;28;45431;-83
2021/09/11 03:43:30;;;;;;;;;6.00;5.00;;;;;-147.91;100.00;58652.34;5005041;28;45549;-83
2021/09/11 03:45:55;;;;;;;;;4.00;4.00;;;;;-147.91;100.00;58652.34;5011136;28;47515;-83
2021/09/11 03:48:21;;;;;;;;;6.00;6.00;;;;;-147.91;100.00;58652.34;5005789;28;45671;-83
2021/09/11 03:50:46;;;;;;;;;5.00;5.00;;;;;-147.91;100.00;58652.34;5008463;28;46121;-84
2021/09/11 03:53:11;;;;;;;;;7.25;4.00;;;;;-147.91;100.00;58652.34;5006795;28;45538;-84
2021/09/11 03:55:37;;;;;;;;;5.50;3.00;;;;;-147.91;100.00;58652.34;5006737;28;47226;-83
2021/09/11 03:58:02;;;;;;;;;6.00;4.75;;;;;-147.91;100.00;58652.34;5009140;28;45478;-83
2021/09/11 04:00:28;;;;;;;;;5.00;5.00;;;;;-147.91;100.00;58652.34;5007387;28;45608;-83
2021/09/11 04:02:53;;;;;;;;;4.00;4.00;;;;;-147.91;100.00;58652.34;5007061;28;45585;-83
2021/09/11 04:05:18;;;;;;;;;3.00;3.00;;;;;-147.91;100.00;58652.34;5014599;28;45554;-82
2021/09/11 04:07:44;;;;;;;;;5.00;4.00;;;;;-147.91;100.00;58652.34;5002981;28;46442;-82
2021/09/11 04:10:10;;;;;;;;;4.75;4.00;;;;;-147.91;100.00;58652.34;5009557;28;45706;-83
2021/09/11 04:12:35;;;;;;;;;4.75;4.25;;;;;-147.91;100.00;58652.34;5009490;28;45613;-83
2021/09/11 04:15:01;;;;;;;;;4.00;4.00;;;;;-147.91;100.00;58652.34;4995458;28;48065;-83
2021/09/11 04:17:26;;;;;;;;;4.00;3.00;;;;;-147.91;100.00;58652.34;5007989;28;45786;-83
2021/09/11 04:19:52;;;;;;;;;3.00;3.00;;;;;-147.91;100.00;58652.34;4993304;28;45668;-81
2021/09/11 04:22:17;;;;;;;;;3.00;2.00;;;;;-147.91;100.00;58652.34;5005109;28;45887;-81
2021/09/11 04:28:04;;;;;;;;;2.50;2.00;;;;;-147.91;100.00;58652.34;5012514;28;45439;-81
2021/09/11 04:30:30;;;;;;;;;5.00;3.00;;;;;-147.91;100.00;58652.34;5005548;28;45793;-81
2021/09/11 04:32:56;;;;;;;;;3.25;2.50;;;;;-147.91;100.00;58652.34;4987859;28;45838;-82
2021/09/11 04:35:21;;;;;;;;;3.00;2.25;;;;;-147.91;100.00;58652.34;5007588;28;46572;-81
2021/09/11 04:37:47;;;;;;;;;3.50;2.00;;;;;-147.91;100.00;58652.34;5005759;28;45571;-81
2021/09/11 04:40:13;;;;;;;;;3.00;3.00;;;;;-147.91;100.00;58652.34;5001723;28;46082;-80
2021/09/11 04:42:39;;;;;;;;;3.00;3.00;;;;;-147.91;100.00;58652.34;5010310;28;45614;-81
2021/09/11 04:45:04;;;;;;;;;3.00;2.00;;;;;-147.91;100.00;58652.34;4987771;28;46478;-81
2021/09/11 04:47:30;;;;;;;;;3.50;3.25;;;;;-147.91;100.00;58652.34;5007670;28;46728;-81
2021/09/11 04:49:55;;;;;;;;;3.00;3.00;;;;;-147.91;100.00;58652.34;5015266;28;46203;-81
2021/09/11 04:52:21;;;;;;;;;3.50;3.00;;;;;-147.91;100.00;58652.34;5005846;28;45761;-81
2021/09/11 04:54:46;;;;;;;;;5.00;2.25;;;;;-147.91;100.00;58652.34;5004501;28;48182;-81
2021/09/11 04:57:12;;;;;;;;;4.50;3.00;;;;;-147.91;100.00;58652.34;5007441;28;45547;-81
2021/09/11 04:59:38;;;;;;;;;3.00;3.00;;;;;-147.91;100.00;58652.34;5007924;28;45777;-81
2021/09/11 05:02:03;;;;;;;;;4.00;2.25;;;;;-147.91;100.00;58652.34;4998128;28;45864;-81
2021/09/11 05:04:29;;;;;;;;;2.75;2.75;;;;;-147.91;100.00;58652.34;5006062;28;45898;-81
2021/09/11 05:06:54;;;;;;;;;4.75;3.00;;;;;-147.91;100.00;58652.34;5008197;28;46641;-81
2021/09/11 05:09:20;;;;;;;;;2.25;2.25;;;;;-147.91;100.00;58652.34;5010364;28;45791;-80
2021/09/11 05:11:46;;;;;;;;;3.50;1.00;;;;;-147.91;100.00;58652.34;4998205;28;46535;-80
2021/09/11 05:14:12;;;;;;;;;5.25;3.00;;;;;-147.91;100.00;58652.34;5013888;28;45741;-83
2021/09/11 05:16:42;;;;;;;;;2.75;2.75;;;;;-147.91;100.00;58652.34;4987640;28;46286;-84
2021/09/11 05:19:08;;;;;;;;;3.00;2.00;;;;;-147.91;100.00;58652.34;5007732;28;48347;-85
2021/09/11 05:21:33;;;;;;;;;4.50;2.00;;;;;-147.91;100.00;58652.34;5020122;28;45530;-84
2021/09/11 05:23:59;;;;;;;;;3.00;3.00;;;;;-147.91;100.00;58652.34;5006576;28;46184;-83
2021/09/11 05:26:24;;;;;;;;;3.00;2.00;;;;;-147.91;100.00;58652.34;5020085;28;45718;-84
2021/09/11 05:28:50;;;;;;;;;2.00;2.00;;;;;-147.91;100.00;58652.34;5018834;28;45491;-84
2021/09/11 05:31:15;;;;;;;;;2.75;2.75;;;;;-147.91;100.00;58652.34;5017344;28;45786;-84
2021/09/11 05:33:41;;;;;;;;;2.25;2.00;;;;;-147.91;100.00;58652.34;5016015;28;47124;-84
2021/09/11 05:36:06;;;;;;;;;3.00;1.75;;;;;-147.91;100.00;58652.34;5019966;28;45636;-85
2021/09/11 05:38:32;;;;;;;;;4.00;2.00;;;;;-147.91;100.00;58652.34;5013907;28;47618;-87
2021/09/11 05:40:57;;;;;;;;;1.75;1.75;;;;;-147.91;100.00;58652.34;5014578;28;45490;-87
2021/09/11 05:45:58;;;;;;;;;3.00;3.00;;;;;-147.91;100.00;58652.34;5159212;22;45579;-94
2021/09/11 05:48:24;;;;;;;;;3.00;3.00;;;;;-147.91;100.00;58652.34;4998391;28;45677;-93
2021/09/11 05:50:50;;;;;;;;;3.00;2.00;;;;;-147.91;100.00;58652.34;5007812;28;45629;-94
2021/09/11 05:53:15;;;;;;;;;3.00;2.75;;;;;-147.91;100.00;58652.34;5010099;28;47510;-93
2021/09/11 05:55:41;;;;;;;;;2.50;2.50;;;;;-147.91;100.00;58652.34;5007081;28;45299;-93
2021/09/11 05:58:06;;;;;;;;;5.00;4.00;;;;;-147.91;100.00;58652.34;4971582;28;45370;-93
2021/09/11 06:00:55;;;;;;;;;3.75;3.75;;;;;-147.91;100.00;58652.34;4988792;28;45421;-93
2021/09/11 06:03:21;;;;;;;;;4.00;4.00;;;;;-147.91;100.00;58652.34;4991873;28;47455;-94
2021/09/11 06:05:47;;;;;;;;;4.75;3.00;;;;;-147.91;100.00;58652.34;4981929;28;46002;-93
2021/09/11 06:08:13;;;;;;;;;4.00;4.00;;;;;-147.91;100.00;58652.34;4978779;28;45231;-94
2021/09/11 06:10:39;;;;;;;;;4.25;4.25;;;;;-147.91;100.00;58652.34;4980641;28;45481;-94
2021/09/11 06:13:04;;;;;;;;;4.25;4.00;;;;;-147.91;100.00;58652.34;4991477;28;46988;-94
2021/09/11 06:15:30;;;;;;;;;5.25;4.50;;;;;-147.91;100.00;58652.34;4978880;28;44927;-94
2021/09/11 06:17:55;;;;;;;;;4.50;3.50;;;;;-147.91;100.00;58652.34;4984645;28;46845;-93
2021/09/11 06:20:21;;;;;;;;;4.00;3.00;;;;;-147.91;100.00;58652.34;4979214;28;45491;-93
2021/09/11 06:22:46;;;;;;;;;5.00;4.00;;;;;-147.91;100.00;58652.34;4977120;28;47029;-94
2021/09/11 06:25:13;;;;;;;;;4.00;2.75;;;;;-147.91;100.00;58652.34;4983031;28;45609;-93
2021/09/11 06:27:40;;;;;;;;;3.75;3.75;;;;;-147.91;100.00;58652.34;4970501;28;45457;-94
2021/09/11 06:30:08;;;;;;;;;2.00;2.00;;;;;-147.91;100.00;58652.34;4991808;28;45584;-93
2021/09/11 06:32:34;;;;;;;;;3.50;3.50;;;;;-147.91;100.00;58652.34;4975022;28;46909;-92
2021/09/11 06:34:59;;;;;;;;;4.50;2.00;;;;;-147.91;100.00;58652.34;4963772;28;45789;-93
2021/09/11 06:37:25;;;;;;;;;3.00;3.00;;;;;-147.91;100.00;58652.34;4974182;28;45475;-93
2021/09/11 06:39:50;;;;;;;;;3.25;1.75;;;;;-147.91;100.00;58652.34;4982465;28;45489;-94
2021/09/11 06:42:19;;;;;;;;;3.00;1.50;;;;;-147.91;100.00;58652.34;4975852;28;47200;-93
2021/09/11 06:44:44;;;;;;;;;2.75;2.00;;;;;-147.91;100.00;58652.34;4981177;28;45411;-93
2021/09/11 06:47:10;;;;;;;;;2.25;2.00;;;;;-147.91;100.00;58652.34;4971735;28;45583;-93
2021/09/11 06:49:35;;;;;;;;;2.00;2.00;;;;;-147.91;100.00;58652.34;4989440;28;45697;-92
2021/09/11 06:52:01;;;;;;;;;2.00;2.00;;;;;-147.91;100.00;58652.34;4984154;28;45574;-93
2021/09/11 06:54:26;;;;;;;;;3.50;2.00;;;;;-147.91;100.00;58652.34;4977021;28;45544;-93
2021/09/11 06:56:52;;;;;;;;;2.00;1.25;;;;;-147.91;100.00;58652.34;4991697;28;45446;-92
2021/09/11 06:59:17;;;;;;;;;0.00;0.00;;;;;-147.91;100.00;58652.34;4987204;28;45447;-93
2021/09/11 07:01:42;;;;;;;;;3.00;2.00;;;;;-147.91;100.00;58652.34;4986994;28;46923;-91
2021/09/11 07:04:08;;;;;;;;;2.00;2.00;;;;;-147.91;100.00;58652.34;5016367;22;45791;-84
2021/09/11 07:06:33;;;;;;;;;2.50;2.00;;;;;-147.91;100.00;58652.34;5031431;28;47086;-85
2021/09/11 07:08:59;;;;;;;;;3.00;1.25;;;;;-147.91;100.00;58652.34;5027106;28;46905;-83
2021/09/11 07:11:24;;;;;;;;;3.00;2.00;;;;;-147.91;100.00;58652.34;5029457;28;45541;-83
2021/09/11 07:13:49;;;;;;;;;2.00;2.00;;;;;-147.91;100.00;58652.34;5041106;28;45727;-83
2021/09/11 07:16:15;;;;;;;;;2.00;1.00;;;;;-147.91;100.00;58652.34;5040114;28;45982;-82
2021/09/11 07:18:40;;;;;;;;;3.00;1.25;;;;;-147.91;100.00;58652.34;5040332;28;45236;-83
2021/09/11 07:21:06;;;;;;;;;4.00;1.00;;;;;-147.91;100.00;58652.34;5030867;28;45564;-83
2021/09/11 07:23:31;;;;;;;;;2.00;1.00;;;;;-147.91;100.00;58652.34;5016180;28;46059;-83
2021/09/11 07:25:57;;;;;;;;;3.00;1.00;;;;;-147.91;100.00;58652.34;5023687;28;51153;-83
2021/09/11 07:28:23;;;;;;;;;2.00;1.00;;;;;-147.91;100.00;58652.34;5008539;28;51240;-84
2021/09/11 07:30:49;;;;;;;;;3.00;2.00;;;;;-147.91;100.00;58652.34;5034388;28;45597;-88
2021/09/11 07:33:14;;;;;;;;;2.75;2.25;;;;;-147.91;100.00;58652.34;5020973;28;45558;-82
2021/09/11 07:35:39;;;;;;;;;3.25;1.00;;;;;-147.91;100.00;58652.34;5011500;28;45639;-81
2021/09/11 07:38:06;;;;;;;;;2.50;2.00;;;;;-147.91;100.00;58652.34;5026762;28;45890;-81
2021/09/11 07:40:31;;;;;;;;;2.25;1.50;;;;;-147.91;100.00;58652.34;5030999;28;46165;-84
2021/09/11 07:42:56;;;;;;;;;3.75;1.00;;;;;-147.91;100.00;58652.34;5020247;28;46211;-82
2021/09/11 07:45:24;;;;;;;;;0.75;0.75;;;;;-147.91;100.00;58652.34;5015973;28;45845;-82
2021/09/11 07:47:50;;;;;;;;;2.00;0.50;;;;;-147.91;100.00;58652.34;5035215;28;45767;-82
2021/09/11 07:50:15;;;;;;;;;1.00;1.00;;;;;-147.91;100.00;58652.34;5029172;28;46285;-81
2021/09/11 07:52:41;;;;;;;;;2.00;2.00;;;;;-147.91;100.00;58652.34;5015229;28;45387;-81
2021/09/11 07:55:07;;;;;;;;;1.50;1.00;;;;;-147.91;100.00;58652.34;5027342;28;45727;-82
2021/09/11 07:57:33;;;;;;;;;0.75;0.75;;;;;-147.91;100.00;58652.34;5031811;28;45582;-81
2021/09/11 07:59:58;;;;;;;;;2.25;1.00;;;;;-147.91;100.00;58652.34;5016794;28;47899;-82
2021/09/11 08:02:24;;;;;;;;;2.50;1.50;;;;;-147.91;100.00;58652.34;5032863;28;45657;-81
2021/09/11 08:04:49;;;;;;;;;1.00;1.00;;;;;-147.91;100.00;58652.34;5023579;28;45937;-81
2021/09/11 08:07:15;;;;;;;;;2.00;2.00;;;;;-147.91;100.00;58652.34;5027639;28;45644;-81
2021/09/11 08:09:40;;;;;;;;;3.00;2.00;;;;;-147.91;100.00;58652.34;5024938;28;46044;-81
2021/09/11 08:12:06;;;;;;;;;1.00;1.00;;;;;-147.91;100.00;58652.34;5034515;28;45782;-81
2021/09/11 08:14:58;;;;;;;;;3.00;1.00;;;;;-147.91;100.00;58652.34;5030062;28;45520;-84
2021/09/11 08:17:24;;;;;;;;;1.50;1.00;;;;;-147.91;100.00;58652.34;5040282;28;45636;-82
2021/09/11 08:19:50;;;;;;;;;0.25;0.25;;;;;-147.91;100.00;58652.34;5039268;22;46529;-81
2021/09/11 08:22:16;;;;;;;;;1.25;1.25;;;;;-147.91;100.00;58652.34;5006021;28;45709;-81
2021/09/11 08:24:41;;;;;;;;;2.00;2.00;;;;;-147.91;100.00;58652.34;5006482;28;45648;-81
2021/09/11 08:27:07;;;;;;;;;1.00;1.00;;;;;-147.91;100.00;58652.34;5005574;28;45571;-81
2021/09/11 08:29:38;;;;;;;;;1.00;1.00;;;;;-147.91;100.00;58652.34;5009303;28;46541;-81
2021/09/11 08:32:04;;;;;;;;;0.50;0.50;;;;;-147.91;100.00;58652.34;5003507;28;45695;-80
2021/09/11 08:34:30;;;;;;;;;1.00;1.00;;;;;-147.91;100.00;58652.34;5009631;28;45567;-81
2021/09/11 08:36:56;;;;;;;;;2.50;1.00;;;;;-147.91;100.00;58652.34;5000872;28;45840;-81
2021/09/11 08:39:25;;;;;;;;;2.00;2.00;;;;;-147.91;100.00;58652.34;4985520;28;46586;-82
2021/09/11 08:41:52;;;;;;;;;1.00;1.00;;;;;-147.91;100.00;58652.34;4988379;28;45982;-81
2021/09/11 08:44:18;;;;;;;;;2.00;1.00;;;;;-147.91;100.00;58652.34;5008709;28;45456;-83
2021/09/11 08:46:44;;;;;;;;;2.00;1.00;;;;;-147.91;100.00;58652.34;5006186;28;47871;-82
2021/09/11 08:49:10;;;;;;;;;2.75;1.00;;;;;-147.91;100.00;58652.34;5067117;22;45827;-82
2021/09/11 08:51:36;;;;;;;;;3.00;1.50;;;;;-147.91;100.00;58652.34;5031176;28;45618;-81
2021/09/11 08:56:41;;;;;;;;;1.00;1.00;;;;;-147.91;100.00;58652.34;5034127;28;47112;-93
2021/09/11 08:59:10;;;;;;;;;1.00;1.00;;;;;-147.91;100.00;58652.34;5035467;28;46444;-95
2021/09/11 09:01:37;;;;;;;;;2.00;2.00;;;;;-147.91;100.00;58652.34;5033302;28;45550;-94
2021/09/11 09:04:02;;;;;;;;;2.00;2.00;;;;;-147.91;100.00;58652.34;5039093;28;45317;-93
2021/09/11 09:06:30;;;;;;;;;2.00;2.00;;;;;-147.91;100.00;58652.34;5030622;28;46502;-94
2021/09/11 09:09:13;;;;;;;;;3.00;2.00;;;;;-147.91;100.00;58652.34;5027187;28;45603;-93
2021/09/11 09:11:42;;;;;;;;;2.00;2.00;;;;;-147.91;100.00;58652.34;5018590;28;45625;-94
2021/09/11 09:14:13;;;;;;;;;1.00;1.00;;;;;-147.91;100.00;58652.34;5029242;28;45367;-94
2021/09/11 09:16:42;;;;;;;;;2.00;2.00;;;;;-147.91;100.00;58652.34;5034239;28;45459;-95
2021/09/11 09:19:25;;;;;;;;;3.25;1.00;;;;;-147.91;100.00;58652.34;5025842;28;46963;-93
2021/09/11 09:21:53;;;;;;;;;2.00;2.00;;;;;-147.91;100.00;58652.34;5012373;28;46056;-94
2021/09/11 09:24:34;;;;;;;;;2.00;1.00;;;;;-147.91;100.00;58652.34;5037284;28;45567;-93
2021/09/11 09:27:08;;;;;;;;;2.00;2.00;;;;;-147.91;100.00;58652.34;5029051;28;45335;-95
2021/09/11 09:29:36;;;;;;;;;2.50;1.00;;;;;-147.91;100.00;58652.34;5034792;28;47264;-95
2021/09/11 09:32:02;;;;;;;;;2.00;1.00;;;;;-147.91;100.00;58652.34;5015525;28;45449;-93
2021/09/11 09:34:41;;;;;;;;;2.00;0.00;;;;;-147.91;100.00;58652.34;5036888;28;45300;-94
2021/09/11 09:37:13;;;;;;;;;1.25;1.25;;;;;-147.91;100.00;58652.34;5018692;28;45558;-94
2021/09/11 09:39:44;;;;;;;;;1.00;1.00;;;;;-147.91;100.00;58652.34;5037868;28;45501;-94
2021/09/11 09:42:11;;;;;;;;;2.75;2.00;;;;;-147.91;100.00;58652.34;5016641;28;46073;-93
2021/09/11 09:44:45;;;;;;;;;3.00;1.75;;;;;-147.91;100.00;58652.34;5011516;28;45457;-94
2021/09/11 09:47:17;;;;;;;;;2.00;2.00;;;;;-147.91;100.00;58652.34;5028894;28;45477;-94
2021/09/11 09:50:06;;;;;;;;;2.00;2.00;;;;;-147.91;100.00;58652.34;5005705;28;48290;-94
2021/09/11 09:52:33;;;;;;;;;2.25;2.00;;;;;-147.91;100.00;58652.34;5036815;28;45706;-95
2021/09/11 09:54:59;;;;;;;;;2.00;2.00;;;;;-147.91;100.00;58652.34;5033014;28;45444;-94
2021/09/11 09:57:25;;;;;;;;;1.50;1.50;;;;;-147.91;100.00;58652.34;5026863;28;45590;-95
2021/09/11 09:59:50;;;;;;;;;1.00;1.00;;;;;-147.91;100.00;58652.34;5020327;28;47022;-95
2021/09/11 10:02:16;;;;;;;;;2.25;1.00;;;;;-147.91;100.00;58652.34;5018581;28;45583;-95
2021/09/11 10:04:42;;;;;;;;;1.50;1.50;;;;;-147.91;100.00;58652.34;5018333;28;45483;-94
2021/09/11 10:07:07;;;;;;;;;2.25;2.25;;;;;-147.91;100.00;58652.34;5012469;28;45840;-95
2021/09/11 10:09:34;;;;;;;;;2.00;2.00;;;;;-147.91;100.00;58652.34;5017066;28;47032;-94
2021/09/11 10:12:00;;;;;;;;;2.75;2.00;;;;;-147.91;100.00;58652.34;5025946;28;45447;-94
2021/09/11 10:14:34;;;;;;;;;2.00;2.00;;;;;-147.91;100.00;58652.34;5025936;28;54818;-93
2021/09/11 10:17:04;;;;;;;;;1.00;1.00;;;;;-147.91;100.00;58652.34;5016009;28;45449;-92
2021/09/11 10:19:32;;;;;;;;;2.50;2.50;;;;;-147.91;100.00;58652.34;5038023;28;45598;-94
2021/09/11 10:22:21;;;;;;;;;2.75;2.75;;;;;-147.91;100.00;58652.34;5032189;28;45506;-93
2021/09/11 10:24:49;;;;;;;;;2.75;2.75;;;;;-147.91;100.00;58652.34;5036150;22;47120;-86
2021/09/11 10:27:32;;;;;;;;;3.00;3.00;;;;;-147.91;100.00;58652.34;5025857;28;45653;-87
2021/09/11 10:29:58;;;;;;;;;2.00;2.00;;;;;-147.91;100.00;58652.34;5044975;28;46691;-86
2021/09/11 10:35:04;;;;;;;;;4.25;2.00;;;;;-147.91;100.00;58652.34;5147355;22;46626;-94
2021/09/11 10:37:39;;;;;;;;;3.00;3.00;;;;;-147.91;100.00;58652.34;5056995;28;45522;-94
2021/09/11 10:40:25;;;;;;;;;3.00;3.00;;;;;-147.91;100.00;58652.34;5051440;28;45416;-94
2021/09/11 10:43:24;;;;;;;;;2.75;2.50;;;;;-147.91;100.00;58652.34;5050481;28;45578;-95
2021/09/11 10:45:53;;;;;;;;;4.00;3.00;;;;;-147.91;100.00;58652.34;5048989;28;45673;-94
2021/09/11 10:48:39;;;;;;;;;2.00;2.00;;;;;-147.91;100.00;58652.34;5047622;28;45645;-95
2021/09/11 10:51:33;;;;;;;;;6.25;3.25;;;;;-147.91;100.00;58652.34;5049350;28;45764;-94
2021/09/11 10:53:58;;;;;;;;;2.50;2.00;;;;;-147.91;100.00;58652.34;5051226;28;45547;-95
2021/09/11 10:56:30;;;;;;;;;2.75;2.75;;;;;-147.91;100.00;58652.34;5050604;28;49518;-95
2021/09/11 10:59:15;;;;;;;;;2.75;2.75;;;;;-147.91;100.00;58652.34;5028485;28;45686;-94
2021/09/11 11:02:21;;;;;;;;;3.25;3.25;;;;;-147.91;100.00;58652.34;5030712;28;45396;-94
2021/09/11 11:04:49;;;;;;;;;2.75;2.75;;;;;-147.91;100.00;58652.34;4987596;28;45552;-96
2021/09/11 11:07:41;;;;;;;;;2.75;1.00;;;;;-147.91;100.00;58652.34;4992927;28;45530;-94
2021/09/11 11:10:10;;;;;;;;;3.00;2.00;;;;;-147.91;100.00;58652.34;4990874;28;45683;-96
2021/09/11 11:12:45;;;;;;;;;2.75;2.75;;;;;-147.91;100.00;58652.34;4971536;28;46650;-96
2021/09/11 11:15:12;;;;;;;;;4.00;2.00;;;;;-147.91;100.00;58652.34;5002810;28;46964;-95
2021/09/11 11:17:48;;;;;;;;;3.50;3.00;;;;;-147.91;100.00;58652.34;4976895;28;45588;-95
2021/09/11 11:20:20;;;;;;;;;3.75;2.25;;;;;-147.91;100.00;58652.34;4986278;28;45498;-94
2021/09/11 11:22:45;;;;;;;;;2.00;2.00;;;;;-147.91;100.00;58652.34;4987863;28;48042;-94
2021/09/11 11:25:27;;;;;;;;;2.75;2.25;;;;;-147.91;100.00;58652.34;4985227;28;45616;-95
2021/09/11 11:27:53;;;;;;;;;3.25;1.75;;;;;-147.91;100.00;58652.34;4978287;28;45733;-95
2021/09/11 11:30:21;;;;;;;;;2.00;2.00;;;;;-147.91;100.00;58652.34;4986325;28;45527;-95
2021/09/11 11:32:47;;;;;;;;;1.50;1.50;;;;;-147.91;100.00;58652.34;5006865;28;46900;-95
2021/09/11 11:35:14;;;;;;;;;1.75;1.75;;;;;-147.91;100.00;58652.34;4977807;28;45713;-94